Time;durP1;ratioP1;P1;durP2;ratioP2;P2;SDS_P1;SDS_P2;PMS_P1;PMS_P2;Temp;Humidity;BMP_temperature;BMP_pressure;BME280_temperature;BME280_humidity;BME280_pressure;Samples;Min_cycle;Max_cycle;Signal;HPM_P1;HPM_P2
2023/07/08 00:02:53;;;;;;;13.85;8.93;;;;;;;17.11;65.88;100758.97;6154225;23;20040;-83
2023/07/08 00:05:56;;;;;;;11.77;9.32;;;;;;;17.03;65.92;100748.97;6153691;23;20084;-83
2023/07/08 00:09:00;;;;;;;12.27;9.43;;;;;;;17.05;66.17;100751.53;6154325;23;20028;-83
2023/07/08 00:12:09;;;;;;;20.83;9.75;;;;;;;17.01;66.65;100747.44;6136436;23;20032;-83
2023/07/08 00:15:14;;;;;;;14.52;9.50;;;;;;;17.04;66.29;100753.31;6154238;23;20072;-83
2023/07/08 00:18:18;;;;;;;12.20;9.15;;;;;;;16.86;66.53;100758.19;6154939;23;20084;-83
2023/07/08 00:21:25;;;;;;;15.73;9.35;;;;;;;16.81;66.75;100752.38;6153737;23;20105;-83
2023/07/08 00:24:36;;;;;;;16.38;8.82;;;;;;;16.65;66.54;100763.22;6136861;23;20103;-83
2023/07/08 00:27:41;;;;;;;15.55;9.30;;;;;;;16.71;66.88;100746.91;6153957;23;20044;-82
2023/07/08 00:30:44;;;;;;;12.68;8.50;;;;;;;16.72;67.04;100753.06;6135635;23;20244;-83
2023/07/08 00:33:47;;;;;;;16.10;9.77;;;;;;;16.69;67.24;100755.94;6135977;23;20023;-83
2023/07/08 00:36:51;;;;;;;15.18;9.77;;;;;;;16.63;67.72;100759.03;6136620;23;20478;-83
2023/07/08 00:39:54;;;;;;;10.30;9.20;;;;;;;16.47;67.81;100754.88;6136186;23;20028;-83
2023/07/08 00:43:00;;;;;;;12.15;9.40;;;;;;;16.37;67.98;100756.50;6136117;23;20036;-83
2023/07/08 00:46:13;;;;;;;14.52;10.02;;;;;;;16.45;68.23;100759.41;6154822;23;20522;-83
2023/07/08 00:49:22;;;;;;;14.23;8.85;;;;;;;16.41;68.40;100757.97;6137043;23;20071;-83
2023/07/08 00:52:29;;;;;;;13.48;9.20;;;;;;;16.44;68.26;100756.91;6137002;23;20021;-83
2023/07/08 00:55:33;;;;;;;15.27;9.13;;;;;;;16.25;68.54;100771.41;6154973;23;20024;-83
2023/07/08 00:58:48;;;;;;;18.25;9.57;;;;;;;16.12;69.22;100759.22;6154984;23;20023;-83
2023/07/08 01:01:53;;;;;;;13.00;9.52;;;;;;;16.10;68.83;100758.50;6154632;23;20083;-83
2023/07/08 01:05:06;;;;;;;13.32;8.50;;;;;;;16.09;68.81;100764.72;6156283;23;20024;-83
2023/07/08 01:08:09;;;;;;;12.88;9.13;;;;;;;16.02;69.16;100762.53;6156736;23;20101;-83
2023/07/08 01:11:13;;;;;;;14.40;9.80;;;;;;;16.02;69.62;100759.06;6155810;23;20024;-83
2023/07/08 01:14:19;;;;;;;12.85;9.38;;;;;;;16.04;69.23;100762.41;6138957;23;20029;-84
2023/07/08 01:17:24;;;;;;;14.25;9.20;;;;;;;15.99;69.18;100761.91;6156919;23;20056;-83
2023/07/08 01:20:47;;;;;;;14.60;9.55;;;;;;;16.03;69.15;100760.72;6156764;23;20025;-85
2023/07/08 01:23:54;;;;;;;14.80;9.43;;;;;;;15.98;69.62;100762.84;6156653;23;20024;-81
2023/07/08 01:26:58;;;;;;;14.05;9.85;;;;;;;16.01;69.48;100763.47;6138403;23;20027;-83
2023/07/08 01:30:03;;;;;;;11.40;9.50;;;;;;;15.91;69.30;100759.78;6156317;23;20473;-81
2023/07/08 01:33:21;;;;;;;15.07;9.73;;;;;;;15.88;69.90;100754.72;6156592;23;20028;-81
2023/07/08 01:36:29;;;;;;;12.90;9.75;;;;;;;15.92;69.93;100755.34;6138464;23;20088;-81
2023/07/08 01:39:33;;;;;;;13.60;9.35;;;;;;;15.84;70.37;100753.28;6138462;23;20036;-81
2023/07/08 01:42:36;;;;;;;13.70;9.57;;;;;;;15.82;69.98;100755.16;6138621;23;20522;-82
2023/07/08 01:45:42;;;;;;;13.15;9.23;;;;;;;15.84;70.23;100745.38;6156269;23;20029;-82
2023/07/08 01:48:51;;;;;;;11.15;9.07;;;;;;;15.75;69.90;100746.00;6138866;23;20474;-82
2023/07/08 01:51:55;;;;;;;15.75;8.98;;;;;;;15.62;70.35;100748.63;6156152;23;20071;-82
2023/07/08 01:54:58;;;;;;;14.52;9.75;;;;;;;15.59;70.95;100741.78;6120830;23;20363;-82
2023/07/08 01:58:04;;;;;;;16.85;9.88;;;;;;;15.68;71.26;100739.50;6138370;23;20563;-82
2023/07/08 02:01:09;;;;;;;16.08;9.27;;;;;;;15.69;70.61;100735.91;6137701;23;20407;-84
2023/07/08 02:04:17;;;;;;;13.45;9.18;;;;;;;15.62;71.15;100739.88;6156420;23;20087;-82
2023/07/08 02:07:20;;;;;;;12.70;10.00;;;;;;;15.59;71.10;100735.66;6138220;23;20028;-82
2023/07/08 02:10:25;;;;;;;10.45;9.00;;;;;;;15.66;70.85;100742.19;6155474;23;20567;-82
2023/07/08 02:13:28;;;;;;;12.93;9.27;;;;;;;15.55;71.12;100740.31;6137933;23;20025;-82
2023/07/08 02:16:33;;;;;;;12.52;9.30;;;;;;;15.54;71.34;100727.25;6155603;23;20157;-83
2023/07/08 02:19:43;;;;;;;11.60;8.60;;;;;;;15.50;71.83;100734.50;6156164;23;20028;-82
2023/07/08 02:22:47;;;;;;;12.63;9.68;;;;;;;15.54;71.63;100728.09;6156127;23;20028;-83
2023/07/08 02:25:52;;;;;;;12.40;9.55;;;;;;;15.49;71.81;100730.19;6138153;23;20028;-83
2023/07/08 02:28:56;;;;;;;19.50;9.95;;;;;;;15.46;71.82;100722.50;6138040;23;20100;-82
2023/07/08 02:32:00;;;;;;;12.13;9.07;;;;;;;15.57;71.60;100719.09;6137815;23;20024;-82
2023/07/08 02:35:04;;;;;;;11.55;9.23;;;;;;;15.59;71.06;100710.16;6155984;23;20493;-83
2023/07/08 02:38:11;;;;;;;13.45;9.32;;;;;;;15.57;71.21;100717.34;6155683;23;20028;-82
2023/07/08 02:41:15;;;;;;;17.00;9.77;;;;;;;15.66;70.89;100717.63;6155673;23;20481;-80
2023/07/08 02:44:19;;;;;;;12.80;8.95;;;;;;;15.69;70.88;100714.81;6155276;23;20103;-81
2023/07/08 02:47:22;;;;;;;15.35;9.27;;;;;;;15.66;70.71;100709.72;6137577;23;20039;-81
2023/07/08 02:50:35;;;;;;;11.98;9.50;;;;;;;15.65;70.46;100723.84;6121430;23;20092;-81
2023/07/08 02:53:41;;;;;;;11.27;9.07;;;;;;;15.75;70.73;100722.28;6155886;23;20411;-82
2023/07/08 02:56:49;;;;;;;11.35;8.43;;;;;;;15.76;70.58;100731.88;6138244;23;20028;-85
2023/07/08 03:00:04;;;;;;;12.68;9.60;;;;;;;15.71;70.84;100734.00;6137561;23;20103;-82
2023/07/08 03:03:21;;;;;;;13.02;9.35;;;;;;;15.64;70.88;100743.28;6137856;23;20522;-81
2023/07/08 03:06:50;;;;;;;11.95;9.02;;;;;;;15.65;70.62;100742.31;6155664;23;20036;-82
2023/07/08 03:09:53;;;;;;;12.38;9.15;;;;;;;15.51;71.03;100746.75;6137307;23;20048;-82
2023/07/08 03:12:57;;;;;;;12.25;8.63;;;;;;;15.46;71.01;100755.91;6136430;23;20048;-82
2023/07/08 03:16:08;;;;;;;12.57;9.23;;;;;;;15.41;71.91;100752.75;6136440;23;20486;-82
2023/07/08 03:19:15;;;;;;;13.77;9.60;;;;;;;15.41;72.18;100747.47;6136174;23;20028;-82
2023/07/08 03:22:23;;;;;;;18.02;9.90;;;;;;;15.35;72.46;100749.59;6155255;23;20045;-83
2023/07/08 03:25:26;;;;;;;12.43;9.60;;;;;;;15.40;72.38;100757.19;6136971;23;20028;-82
2023/07/08 03:28:32;;;;;;;14.60;8.65;;;;;;;15.41;72.17;100760.66;6137204;23;20301;-81
2023/07/08 03:31:35;;;;;;;11.30;8.60;;;;;;;15.40;71.90;100767.72;6136532;23;20055;-82
2023/07/08 03:34:39;;;;;;;11.40;9.05;;;;;;;15.31;72.75;100770.97;6136194;23;20097;-82
2023/07/08 03:37:42;;;;;;;13.15;8.80;;;;;;;15.24;72.95;100774.97;6136110;23;20064;-82
2023/07/08 03:40:46;;;;;;;13.35;8.85;;;;;;;15.26;72.82;100775.72;6136536;23;20076;-82
2023/07/08 03:43:50;;;;;;;12.57;8.68;;;;;;;15.24;72.88;100777.63;6136260;23;20079;-81
2023/07/08 03:46:55;;;;;;;11.65;9.13;;;;;;;15.20;73.34;100766.44;6120207;23;20031;-82
2023/07/08 03:50:06;;;;;;;12.02;9.48;;;;;;;15.08;73.63;100762.84;6155151;23;20115;-82
2023/07/08 03:53:13;;;;;;;12.45;8.40;;;;;;;15.13;73.73;100761.72;6155354;23;20028;-81
2023/07/08 03:56:21;;;;;;;12.07;8.82;;;;;;;15.16;73.57;100761.50;6155223;23;20024;-80
2023/07/08 03:59:25;;;;;;;12.30;9.07;;;;;;;15.15;73.83;100762.44;6154868;23;20079;-80
2023/07/08 04:02:31;;;;;;;11.15;8.88;;;;;;;15.21;73.77;100762.00;6136674;23;20072;-80
2023/07/08 04:05:35;;;;;;;14.98;8.93;;;;;;;15.08;73.83;100764.63;6155221;23;20398;-81
2023/07/08 04:08:42;;;;;;;12.25;8.82;;;;;;;15.10;74.05;100768.88;6155110;23;20056;-81
2023/07/08 04:11:45;;;;;;;12.30;9.68;;;;;;;15.13;74.18;100774.88;6155132;23;20188;-81
2023/07/08 04:14:54;;;;;;;13.90;10.25;;;;;;;15.17;73.96;100781.63;6155101;23;20029;-81
2023/07/08 04:18:05;;;;;;;10.88;8.57;;;;;;;15.23;74.15;100783.84;6136972;23;20025;-81
2023/07/08 04:21:09;;;;;;;12.18;9.02;;;;;;;15.22;74.07;100782.13;6155056;23;20080;-82
2023/07/08 04:24:15;;;;;;;12.15;8.02;;;;;;;15.18;74.16;100783.28;6154232;23;20028;-82
2023/07/08 04:27:19;;;;;;;11.45;8.95;;;;;;;15.16;74.89;100779.94;6155309;23;20473;-82
2023/07/08 04:30:26;;;;;;;11.05;8.30;;;;;;;15.32;74.45;100770.88;6155037;23;20056;-82
2023/07/08 04:33:33;;;;;;;13.88;9.30;;;;;;;15.50;74.51;100763.50;6154548;23;20028;-83
2023/07/08 04:36:39;;;;;;;11.73;8.63;;;;;;;15.58;73.61;100760.34;6154084;23;20024;-84
2023/07/08 04:39:44;;;;;;;11.77;8.48;;;;;;;15.71;73.57;100774.38;6135156;23;20118;-83
2023/07/08 04:42:55;;;;;;;15.77;9.60;;;;;;;15.78;73.17;100772.16;6136053;23;20365;-84
2023/07/08 04:45:59;;;;;;;11.27;9.35;;;;;;;15.79;72.70;100779.09;6138308;23;20356;-85
2023/07/08 04:49:03;;;;;;;13.30;9.90;;;;;;;15.92;72.69;100773.81;6155090;23;20071;-84
2023/07/08 04:55:57;;;;;;;14.15;9.90;;;;;;;15.99;72.19;100780.38;6154037;23;20040;-82
2023/07/08 04:59:02;;;;;;;10.15;9.02;;;;;;;16.06;71.63;100770.22;6154432;23;20026;-83
2023/07/08 05:02:08;;;;;;;9.68;8.68;;;;;;;15.95;72.20;100766.56;6154566;23;20080;-82
2023/07/08 05:05:19;;;;;;;12.00;9.00;;;;;;;15.92;72.60;100764.13;6154685;23;20032;-81
2023/07/08 05:08:25;;;;;;;10.77;8.63;;;;;;;15.83;72.31;100772.69;6135187;23;20037;-82
2023/07/08 05:11:32;;;;;;;11.10;8.52;;;;;;;16.01;72.33;100762.63;6154076;23;20037;-78
2023/07/08 05:14:36;;;;;;;10.43;8.38;;;;;;;15.98;71.79;100768.94;6136256;23;20028;-77
2023/07/08 05:17:39;;;;;;;12.48;7.97;;;;;;;16.04;71.33;100767.69;6154724;23;20156;-77
2023/07/08 05:20:50;;;;;;;11.82;7.63;;;;;;;16.11;71.17;100783.91;6153022;23;20024;-76
2023/07/08 05:23:53;;;;;;;10.80;8.20;;;;;;;16.17;71.51;100778.19;6154093;23;20127;-76
2023/07/08 05:26:58;;;;;;;12.57;10.80;;;;;;;16.28;71.35;100783.56;6153767;23;20052;-76
2023/07/08 05:30:06;;;;;;;9.85;8.82;;;;;;;16.39;71.03;100782.78;6153393;23;20060;-76
2023/07/08 05:33:11;;;;;;;12.07;9.13;;;;;;;16.28;70.55;100778.28;6154367;23;20076;-75
2023/07/08 05:36:14;;;;;;;12.73;8.60;;;;;;;16.24;70.83;100790.84;6153288;23;20029;-76
2023/07/08 05:39:20;;;;;;;14.20;8.30;;;;;;;16.36;70.20;100788.28;6152103;23;20079;-76
2023/07/08 05:42:31;;;;;;;12.20;8.27;;;;;;;16.42;70.13;100788.66;6151933;23;20126;-76
2023/07/08 05:45:44;;;;;;;9.43;7.75;;;;;;;16.46;69.97;100803.34;6150850;23;20382;-81
2023/07/08 05:48:48;;;;;;;14.93;8.32;;;;;;;16.56;69.93;100802.66;6153425;23;20473;-81
2023/07/08 05:51:55;;;;;;;11.32;8.88;;;;;;;16.62;69.63;100802.22;6155715;23;20076;-82
2023/07/08 05:55:05;;;;;;;12.15;8.57;;;;;;;16.67;69.70;100802.72;6155762;23;20072;-80
2023/07/08 05:58:10;;;;;;;9.75;8.02;;;;;;;16.73;69.79;100812.84;6155919;23;20399;-78
2023/07/08 06:01:13;;;;;;;11.32;8.50;;;;;;;16.71;69.99;100812.94;6137185;23;20024;-73
2023/07/08 06:04:16;;;;;;;12.25;8.70;;;;;;;16.75;69.57;100826.78;6155784;23;20040;-71
2023/07/08 06:07:20;;;;;;;13.48;8.60;;;;;;;16.80;69.58;100818.53;6155750;23;20024;-71
2023/07/08 06:10:23;;;;;;;12.07;8.07;;;;;;;16.82;69.82;100816.63;6155466;23;20130;-71
2023/07/08 06:13:27;;;;;;;11.13;8.60;;;;;;;17.00;69.87;100799.41;6156210;23;20023;-75
2023/07/08 06:16:30;;;;;;;10.60;8.70;;;;;;;17.07;69.58;100790.09;6153726;23;20068;-74
2023/07/08 06:19:34;;;;;;;12.75;9.63;;;;;;;17.09;69.61;100787.31;6120969;23;20028;-72
2023/07/08 06:23:02;;;;;;;10.88;8.18;;;;;;;17.25;68.98;100816.91;6156042;23;20068;-72
2023/07/08 06:26:06;;;;;;;12.93;9.18;;;;;;;16.91;69.79;100821.22;6154044;23;20359;-72
2023/07/08 06:29:10;;;;;;;13.43;7.18;;;;;;;16.85;69.97;100785.56;6155439;23;20028;-72
2023/07/08 06:32:16;;;;;;;8.85;7.95;;;;;;;17.02;70.84;100772.88;6154645;23;20055;-72
2023/07/08 06:35:24;;;;;;;9.68;8.55;;;;;;;16.99;71.24;100778.41;6154555;23;20024;-85
2023/07/08 06:39:23;;;;;;;10.98;8.60;;;;;;;17.04;71.64;100781.53;6154090;23;20064;-89
2023/07/08 06:42:31;;;;;;;10.38;8.52;;;;;;;17.18;71.70;100781.34;6151993;23;20080;-86
2023/07/08 06:45:50;;;;;;;12.13;8.57;;;;;;;17.26;72.07;100789.53;6152190;23;20028;-81
2023/07/08 06:49:48;;;;;;;12.90;8.25;;;;;;;16.99;73.74;100810.09;6140914;23;20067;-85
2023/07/08 06:53:21;;;;;;;10.50;8.13;;;;;;;16.97;73.47;100789.06;6121724;23;20032;-83
2023/07/08 06:56:35;;;;;;;9.93;7.45;;;;;;;17.21;73.31;100778.47;6154439;23;20056;-87
2023/07/08 06:59:43;;;;;;;8.18;6.97;;;;;;;17.34;72.97;100773.91;6136067;23;20072;-80
2023/07/08 07:02:48;;;;;;;10.35;8.40;;;;;;;17.36;72.90;100773.81;6136780;23;20474;-85
2023/07/08 07:05:52;;;;;;;9.45;7.63;;;;;;;17.31;72.75;100782.06;6153469;23;20028;-82
2023/07/08 07:08:56;;;;;;;10.98;9.05;;;;;;;17.38;73.30;100783.28;6155157;23;20074;-80
2023/07/08 07:12:01;;;;;;;10.50;7.53;;;;;;;17.61;72.46;100775.38;6154796;23;20028;-77
2023/07/08 07:15:27;;;;;;;9.02;7.75;;;;;;;17.71;72.36;100757.84;6136772;23;20041;-87
2023/07/08 07:18:33;;;;;;;9.35;6.88;;;;;;;17.80;72.11;100767.72;6154500;23;20024;-87
2023/07/08 07:21:38;;;;;;;11.52;7.70;;;;;;;17.85;72.01;100765.56;6155217;23;20043;-85
2023/07/08 07:24:46;;;;;;;11.15;7.10;;;;;;;17.88;71.31;100778.53;6154570;23;20133;-86
2023/07/08 07:28:19;;;;;;;12.93;7.03;;;;;;;17.88;70.84;100780.34;6153574;23;20478;-86
2023/07/08 07:31:24;;;;;;;11.48;7.50;;;;;;;18.03;70.91;100784.44;6154849;23;20611;-86
2023/07/08 07:43:53;;;;;;;;;;;;;;;;;;;;;
2023/07/08 07:58:07;;;;;;;;;;;;;;;;;;;;;
2023/07/08 08:17:07;;;;;;;7.65;4.65;;;;;;;20.20;58.71;100765.31;5857504;24;20048;-84
2023/07/08 08:20:14;;;;;;;16.30;4.90;;;;;;;20.43;57.89;100765.06;5868330;24;20028;-85
2023/07/08 08:23:39;;;;;;;7.32;4.40;;;;;;;20.60;57.08;100752.94;5903801;24;20077;-86
2023/07/08 08:27:18;;;;;;;6.47;4.75;;;;;;;20.82;56.01;100755.31;5951369;23;20046;-83
2023/07/08 08:41:28;;;;;;;7.53;4.78;;;;;;;21.62;53.19;100729.25;6035383;23;20081;-88
2023/07/08 08:44:57;;;;;;;;;;;;;;;;;;;;;
2023/07/08 08:49:14;;;;;;;9.70;4.95;;;;;;;22.26;50.71;100719.53;6046831;23;20081;-84
2023/07/08 08:53:00;;;;;;;6.72;4.57;;;;;;;22.70;50.05;100714.28;6063867;23;20094;-85
2023/07/08 09:02:19;;;;;;;;;;;;;;;;;;;;;
2023/07/08 09:11:32;;;;;;;;;;;;;;;;;;;;;
2023/07/08 10:10:26;;;;;;;7.90;5.28;;;;;;;25.91;38.27;100667.34;6003843;23;20058;-85
2023/07/08 10:13:44;;;;;;;7.90;5.97;;;;;;;25.95;38.39;100669.50;6002260;23;20868;-80
2023/07/08 10:16:54;;;;;;;14.80;6.65;;;;;;;25.96;38.40;100678.38;6003868;23;20034;-81
2023/07/08 10:28:25;;;;;;;12.75;5.50;;;;;;;26.02;37.26;100677.66;6008559;23;20027;-86
2023/07/08 10:32:16;;;;;;;9.18;5.63;;;;;;;26.20;36.22;100688.94;6006193;23;20030;-86
2023/07/08 10:35:28;;;;;;;9.55;6.00;;;;;;;26.44;36.25;100684.41;5992524;23;20072;-86
2023/07/08 10:39:26;;;;;;;8.95;5.97;;;;;;;26.45;35.80;100664.59;6006097;23;20035;-86
2023/07/08 10:43:07;;;;;;;8.77;5.13;;;;;;;26.71;35.72;100671.44;5979711;24;20057;-81
2023/07/08 10:46:37;;;;;;;7.40;5.40;;;;;;;26.72;35.58;100678.50;6093038;23;20119;-83
2023/07/08 10:50:32;;;;;;;8.25;5.75;;;;;;;26.69;35.69;100665.44;6093366;23;20041;-84
2023/07/08 10:54:17;;;;;;;7.90;5.32;;;;;;;26.66;36.17;100666.66;6054595;23;20089;-84
2023/07/08 10:57:35;;;;;;;6.47;4.75;;;;;;;26.70;36.46;100664.44;6004965;23;20029;-81
2023/07/08 11:01:22;;;;;;;8.30;6.30;;;;;;;26.70;35.83;100664.44;6059357;23;20021;-82
2023/07/08 11:04:56;;;;;;;7.78;5.47;;;;;;;26.69;35.90;100668.97;6093614;23;20058;-82
2023/07/08 11:08:11;;;;;;;8.93;5.57;;;;;;;26.78;35.37;100659.00;6093611;23;20085;-76
2023/07/08 11:16:20;;;;;;;8.45;5.82;;;;;;;26.60;35.27;100654.78;6151403;23;20027;-86
2023/07/08 11:19:46;;;;;;;;;;;;;;;;;;;;;
2023/07/08 11:23:18;;;;;;;9.05;5.30;;;;;;;27.09;35.08;100662.34;6155354;23;20459;-81
2023/07/08 11:26:42;;;;;;;8.18;4.93;;;;;;;27.10;34.23;100665.88;6136866;23;20091;-81
2023/07/08 11:30:24;;;;;;;8.43;5.43;;;;;;;27.04;34.12;100666.59;6138106;23;20359;-81
2023/07/08 11:33:34;;;;;;;9.13;6.05;;;;;;;27.12;33.67;100659.31;6154886;23;20024;-80
2023/07/08 11:36:43;;;;;;;11.30;5.85;;;;;;;27.36;33.97;100654.69;6137858;23;20084;-80
2023/07/08 11:39:53;;;;;;;6.80;4.90;;;;;;;27.62;34.16;100647.97;6154726;23;20411;-77
2023/07/08 11:43:06;;;;;;;10.82;5.93;;;;;;;27.73;33.08;100655.56;6137500;23;20103;-79
2023/07/08 11:51:04;;;;;;;7.32;5.63;;;;;;;27.78;33.73;100642.41;6155004;23;20044;-84
2023/07/08 12:12:17;;;;;;;7.32;5.72;;;;;;;28.68;33.30;100632.91;6113806;23;20059;-83
2023/07/08 12:15:25;;;;;;;8.23;6.57;;;;;;;28.78;32.53;100636.09;6154295;23;20031;-83
2023/07/08 12:18:45;;;;;;;9.40;6.00;;;;;;;28.66;32.23;100629.59;6154768;23;20084;-82
2023/07/08 12:21:59;;;;;;;7.82;5.72;;;;;;;28.67;32.30;100633.94;6136733;23;20527;-84
2023/07/08 12:25:26;;;;;;;9.77;5.32;;;;;;;28.77;31.80;100630.91;6136872;23;20032;-84
2023/07/08 12:33:39;;;;;;;9.95;5.07;;;;;;;29.16;31.99;100624.94;6156630;23;20024;-85
2023/07/08 12:37:13;;;;;;;8.60;5.43;;;;;;;29.20;31.40;100615.47;6154249;23;20028;-85
2023/07/08 12:40:17;;;;;;;9.57;5.47;;;;;;;29.29;31.98;100611.56;6153894;23;20250;-78
2023/07/08 12:43:23;;;;;;;9.23;5.47;;;;;;;29.36;31.71;100612.41;6154675;23;20026;-80
2023/07/08 12:46:29;;;;;;;7.93;5.13;;;;;;;29.48;31.72;100618.03;6154774;23;20060;-82
2023/07/08 12:49:54;;;;;;;9.50;5.35;;;;;;;29.52;31.56;100610.41;6136644;23;20025;-83
2023/07/08 12:53:09;;;;;;;7.03;5.00;;;;;;;29.74;31.48;100611.09;6136636;23;20352;-82
2023/07/08 12:56:50;;;;;;;6.10;4.78;;;;;;;29.93;31.80;100604.94;6153653;23;20060;-81
2023/07/08 13:00:50;;;;;;;9.40;5.43;;;;;;;30.13;30.74;100610.34;6156345;23;20406;-85
2023/07/08 13:04:29;;;;;;;6.88;4.43;;;;;;;30.40;31.61;100615.75;6138587;23;20363;-85
2023/07/08 13:07:43;;;;;;;8.02;5.60;;;;;;;30.54;30.48;100601.25;6151901;23;20025;-85
2023/07/08 13:11:12;;;;;;;10.80;6.15;;;;;;;30.68;30.67;100597.47;6123825;23;20474;-85
2023/07/08 13:15:30;;;;;;;7.20;5.07;;;;;;;30.89;30.65;100588.34;6157465;23;20044;-87
2023/07/08 13:18:42;;;;;;;13.75;5.53;;;;;;;31.21;30.79;100600.06;6155757;23;20024;-84
2023/07/08 13:22:15;;;;;;;10.18;4.78;;;;;;;31.19;30.00;100598.59;6154402;23;20033;-85
2023/07/08 13:25:47;;;;;;;10.20;5.45;;;;;;;31.37;29.75;100600.66;6141478;23;20064;-85
2023/07/08 13:29:09;;;;;;;10.93;6.18;;;;;;;31.48;29.04;100598.06;6153997;23;20108;-84
2023/07/08 13:32:50;;;;;;;7.32;5.35;;;;;;;31.41;28.86;100591.06;6137643;23;20075;-86
2023/07/08 14:04:44;;;;;;;;;;;;;;;;;;;;;
2023/07/08 14:14:58;;;;;;;;;;;;;;;;;;;;;
2023/07/08 14:18:03;;;;;;;8.35;5.55;;;;;;;33.96;25.26;100581.84;6041340;23;20081;-86
2023/07/08 14:44:44;;;;;;;7.13;4.70;;;;;;;46.83;12.71;100545.69;6171901;23;20029;-79
2023/07/08 14:53:10;;;;;;;7.68;4.93;;;;;;;40.36;17.18;100545.50;6185948;23;20466;-87
2023/07/08 15:27:34;;;;;;;6.38;4.18;;;;;;;37.75;20.04;100554.72;6065892;23;20488;-88
2023/07/08 15:31:56;;;;;;;8.02;4.90;;;;;;;39.52;20.19;100546.91;6064363;23;20022;-89
2023/07/08 16:06:13;;;;;;;;;;;;;;;;;;;;;
2023/07/08 16:18:49;;;;;;;11.57;5.80;;;;;;;35.16;23.79;100534.34;6096756;23;20094;-85
2023/07/08 16:26:52;;;;;;;8.88;5.60;;;;;;;35.39;24.16;100528.81;6093901;23;20025;-86
2023/07/08 16:30:51;;;;;;;11.60;4.95;;;;;;;35.34;23.92;100531.44;6096425;23;20073;-85
2023/07/08 16:34:17;;;;;;;7.28;4.43;;;;;;;35.04;24.22;100539.03;6082118;23;20081;-71
2023/07/08 16:38:12;;;;;;;8.15;5.38;;;;;;;34.77;24.55;100541.41;6096585;23;20060;-88
2023/07/08 16:41:38;;;;;;;10.73;8.50;;;;;;;34.29;25.96;100537.91;6096511;23;20102;-85
2023/07/08 16:50:46;;;;;;;10.27;7.85;;;;;;;33.45;26.79;100548.78;6066179;23;20033;-89
2023/07/08 17:25:47;;;;;;;9.70;5.88;;;;;;;32.06;28.96;100537.59;6007833;23;20378;-86
2023/07/08 17:28:53;;;;;;;6.65;4.70;;;;;;;31.88;30.94;100537.53;6007685;23;20468;-86
2023/07/08 17:32:02;;;;;;;9.77;4.90;;;;;;;31.78;31.17;100537.19;6013202;23;20026;-84
2023/07/08 17:35:12;;;;;;;12.35;4.95;;;;;;;31.62;32.44;100543.94;6095688;23;20569;-75
2023/07/08 17:38:41;;;;;;;9.25;5.00;;;;;;;31.28;33.30;100549.53;6095965;23;20102;-76
2023/07/08 17:41:49;;;;;;;7.88;5.43;;;;;;;31.10;34.11;100546.69;6078263;23;20416;-79
2023/07/08 17:44:55;;;;;;;8.77;5.90;;;;;;;30.81;32.83;100543.47;6096564;23;20530;-82
2023/07/08 17:47:59;;;;;;;8.65;5.55;;;;;;;30.59;33.24;100550.16;6097696;23;20423;-83
2023/07/08 17:51:07;;;;;;;9.43;4.25;;;;;;;30.57;35.71;100552.25;6097814;23;20048;-83
2023/07/08 17:54:13;;;;;;;10.73;4.68;;;;;;;30.48;36.49;100543.53;6081493;23;20122;-83
2023/07/08 17:57:17;;;;;;;10.40;5.63;;;;;;;30.30;36.25;100552.28;6097709;23;20026;-82
2023/07/08 18:00:23;;;;;;;13.63;9.32;;;;;;;30.11;37.38;100563.88;6097490;23;20033;-82
2023/07/08 18:03:26;;;;;;;8.80;6.30;;;;;;;29.93;38.41;100574.44;6097876;23;20029;-82
2023/07/08 18:06:30;;;;;;;6.68;5.28;;;;;;;29.50;38.84;100577.44;6079961;23;20033;-82
2023/07/08 18:09:37;;;;;;;13.57;6.53;;;;;;;29.29;38.90;100581.94;6097715;23;20412;-83
2023/07/08 18:12:45;;;;;;;11.90;5.80;;;;;;;29.25;39.02;100585.22;6097659;23;20471;-86
2023/07/08 18:15:49;;;;;;;8.65;5.38;;;;;;;28.91;40.19;100585.06;6097608;23;20029;-83
2023/07/08 18:18:53;;;;;;;8.48;5.10;;;;;;;28.97;38.49;100592.34;6097327;23;20060;-83
2023/07/08 18:21:57;;;;;;;8.05;4.78;;;;;;;28.93;38.71;100598.28;6097158;23;20029;-83
2023/07/08 18:25:11;;;;;;;8.68;6.18;;;;;;;28.81;38.85;100595.31;6097621;23;20028;-83
2023/07/08 18:28:16;;;;;;;8.95;5.78;;;;;;;28.77;39.30;100593.22;6097262;23;20085;-83
2023/07/08 18:31:30;;;;;;;8.52;6.20;;;;;;;28.69;40.60;100599.63;6097607;23;20123;-84
2023/07/08 18:34:33;;;;;;;10.20;5.75;;;;;;;28.52;41.11;100602.56;6094805;23;20128;-83
2023/07/08 18:37:36;;;;;;;14.63;5.85;;;;;;;28.47;41.13;100609.59;6095404;23;20473;-84
2023/07/08 18:44:27;;;;;;;9.05;4.38;;;;;;;28.22;41.74;100609.16;6152482;23;20025;-83
2023/07/08 18:47:32;;;;;;;6.20;4.20;;;;;;;28.02;42.71;100617.03;6134646;23;20028;-82
2023/07/08 18:50:37;;;;;;;12.75;5.15;;;;;;;27.89;43.53;100617.75;6153625;23;20076;-82
2023/07/08 18:53:41;;;;;;;11.10;4.82;;;;;;;27.76;43.59;100625.59;6151376;23;20029;-82
2023/07/08 18:56:45;;;;;;;8.10;4.75;;;;;;;27.66;44.46;100633.13;6155747;23;20355;-82
2023/07/08 18:59:48;;;;;;;6.97;4.95;;;;;;;27.50;45.28;100639.56;6156087;23;20028;-74
2023/07/08 19:03:00;;;;;;;15.73;5.10;;;;;;;27.45;44.44;100637.47;6155464;23;20059;-71
2023/07/08 19:06:03;;;;;;;10.57;4.93;;;;;;;27.30;45.45;100650.88;6154923;23;20027;-72
2023/07/08 19:09:07;;;;;;;7.28;4.45;;;;;;;27.24;45.20;100651.63;6155843;23;20076;-75
2023/07/08 19:12:11;;;;;;;8.18;4.78;;;;;;;26.99;46.72;100656.41;6155453;23;20024;-73
2023/07/08 19:15:17;;;;;;;7.63;4.78;;;;;;;26.99;46.05;100669.81;6155434;23;20478;-72
2023/07/08 19:18:22;;;;;;;6.70;4.28;;;;;;;26.82;46.41;100669.16;6137110;23;20452;-72
2023/07/08 19:21:29;;;;;;;6.90;4.95;;;;;;;26.80;46.70;100673.91;6155283;23;20032;-73
2023/07/08 19:24:33;;;;;;;8.25;4.22;;;;;;;26.72;47.03;100678.50;6153990;23;20526;-73
2023/07/08 19:27:40;;;;;;;9.15;4.43;;;;;;;26.63;47.08;100712.59;6155613;23;20092;-72
2023/07/08 19:30:51;;;;;;;9.20;4.38;;;;;;;26.66;46.10;100715.75;6156019;23;20025;-74
2023/07/08 19:34:01;;;;;;;9.05;4.35;;;;;;;26.50;48.63;100723.94;6155996;23;20072;-82
2023/07/08 19:37:14;;;;;;;9.75;5.18;;;;;;;26.40;48.61;100736.72;6156300;23;20371;-80
2023/07/08 19:40:23;;;;;;;10.38;5.18;;;;;;;26.33;49.60;100733.91;6155039;23;20031;-78
2023/07/08 19:43:31;;;;;;;10.88;5.00;;;;;;;26.26;49.51;100743.69;6155553;23;20080;-79
2023/07/08 19:46:37;;;;;;;10.80;5.30;;;;;;;26.21;49.28;100746.88;6135761;23;20093;-77
2023/07/08 19:49:42;;;;;;;6.70;4.95;;;;;;;26.15;49.86;100763.66;6137022;23;20479;-77
2023/07/08 19:52:50;;;;;;;11.07;5.57;;;;;;;26.14;50.31;100780.75;6120127;23;20024;-76
2023/07/08 19:55:58;;;;;;;8.43;5.03;;;;;;;26.18;50.18;100781.25;6155447;23;20027;-76
2023/07/08 19:59:04;;;;;;;9.07;5.25;;;;;;;26.09;50.82;100783.13;6154673;23;20036;-77
2023/07/08 20:02:14;;;;;;;9.13;4.85;;;;;;;26.10;50.22;100786.63;6151650;23;20025;-77
2023/07/08 20:05:27;;;;;;;15.07;4.93;;;;;;;25.85;54.31;100807.34;6132681;23;20093;-76
2023/07/08 20:08:31;;;;;;;;;;;;;;;25.69;60.07;100811.72;6152797;23;20068;-75
2023/07/08 20:11:38;;;;;;;11.40;5.22;;;;;;;25.45;62.26;100817.13;6154652;23;20258;-76
2023/07/08 20:14:43;;;;;;;10.77;3.97;;;;;;;25.20;62.09;100833.19;6136861;23;20060;-77
2023/07/08 20:17:47;;;;;;;7.13;4.10;;;;;;;24.79;63.98;100851.91;6155083;23;20059;-76
2023/07/08 20:20:52;;;;;;;14.38;5.20;;;;;;;24.61;66.38;100853.88;6153862;23;20691;-76
2023/07/08 20:23:55;;;;;;;10.13;4.45;;;;;;;24.43;67.54;100851.28;6155109;23;20084;-78
2023/07/08 20:27:35;;;;;;;10.32;4.80;;;;;;;24.17;69.70;100856.69;6120088;23;20087;-77
2023/07/08 20:31:31;;;;;;;12.32;4.97;;;;;;;23.99;70.66;100859.44;6138781;23;20101;-77
2023/07/08 20:34:46;;;;;;;11.20;5.22;;;;;;;23.81;71.96;100856.84;6152642;23;20519;-77
2023/07/08 20:37:50;;;;;;;9.98;5.18;;;;;;;23.70;72.76;100865.13;6154928;23;20420;-79
2023/07/08 20:40:53;;;;;;;13.82;4.97;;;;;;;23.63;72.78;100866.72;6154248;23;20160;-78
2023/07/08 20:44:01;;;;;;;11.02;5.13;;;;;;;23.60;73.46;100859.00;6106982;23;20029;-79
2023/07/08 20:47:14;;;;;;;16.33;5.57;;;;;;;23.30;75.86;100863.81;6126047;23;20089;-78